Ponce de Leon, FL

9:48 PM CDT on September 20, 2014 (GMT -0500)
Northwest Florida Beaches International | Change Station
CLOSE
Current Station
Airport
Location: Panama City,
Elevation: 69 ft
Nearby Weather Stations

Elev 69 ft 30.36 °N, 85.80 °W | Updated 55 minutes ago

Clear
Clear
73 °F
Feels Like 73 °F
N
4
Wind Variable Wind from NNE

Today
High -- | Low -- °F
--% Chance of Precip.
Yesterday
High -- | Low -- °F
Precip. -- in
6:30 AM 6:42 PM
Waning Crescent, 9% visible
Pressure 30.01 in
Visibility 10.0 miles
Clouds Few 6000 ft
Dew Point 68 °F
Humidity 84%
Rainfall 0.00 in
Snow Depth Not available.
UV 0 out of 12
Pollen 9.00 out of 12
Air Quality Not available.
Flu Activity Not available.
METAR KECP 210153Z 02003KT 10SM FEW060 23/20 A2997 RMK AO2 SLP160 T02280200 $

More Conditions Fewer Conditions

Pressure 30.01 in
Visibility 10.0 miles
Clouds Few 6000 ft
Dew Point 68 °F
Humidity 84%
Rainfall 0.00 in
Snow Depth Not available.
UV 0 out of 12
Pollen 9.00 out of 12
Air Quality Not available.
Flu Activity Not available.
METAR KECP 210153Z 02003KT 10SM FEW060 23/20 A2997 RMK AO2 SLP160 T02280200 $

More Conditions Fewer Conditions

10-Day Weather Forecast

Almanac

Astronomy

Sep. 20, 2014 Rise Set
Actual Time 6:30 AM CDT 6:42 PM CDT
Civil Twilight 6:06 AM CDT 7:06 PM CDT
Nautical Twilight 5:38 AM CDT 7:34 PM CDT
Astronomical Twilight 5:10 AM CDT 8:03 PM CDT
Moon 3:20 AM CDT (9/20) 4:36 PM CDT (9/20)
Length of Visible Light 12h 59m
Length of Day
12h 11m
Tomorrow will be 1m 50s shorter.
Waning Crescent, 9% of the Moon is Illuminated
Today
Waning Crescent
Sep 24
New
Oct 1
First Quarter
Oct 8
Full
Oct 15
Last Quarter

Today's Extremes

State Highs State Lows

Community

WunderPhotos

Upload Photos

1,755,066 photos uploaded!

WunderBlogs® & News

Nearby

Snow Depth

Station Depth Elevation
No new snow has been reported.

Earthquake Activity

City Distance Mag. Time & Date
No recent earthquake activity has been reported nearby.
Minimum magnitude displayed is 2.5.

Coastal Water Temperatures

Place Temperature
Panama City, FL 84.9 °F
Panama City Beach, FL 84.9 °F
Apalachicola, FL 82.9 °F

Nearby Weather Stations